<?xml version="1.0" encoding="UTF-8" standalone="no" ?>
<gpx xmlns="http://www.topografix.com/GPX/1/1" xmlns:xsi="http://www.w3.org/2001/XMLSchema-instance" xsi:schemaLocation="http://www.topografix.com/GPX/1/1 http://www.topografix.com/GPX/1/1/gpx.xsd" version="1.1" creator="VisuGPX - https://www.visugpx.com">
  <metadata>
    <name>Roc Mélé </name>
  </metadata>
  <trk>
    <name><![CDATA[Roc Mélé ]]></name>
    <trkseg>
      <trkpt lat="42.56363" lon="1.77167">
        <ele>1732.39</ele>
        <time>2021-01-21T08:26:34Z</time>
      </trkpt>
      <trkpt lat="42.5635" lon="1.77119">
        <ele>1724.66</ele>
        <time>2021-01-21T08:32:59Z</time>
      </trkpt>
      <trkpt lat="42.5636" lon="1.77071">
        <ele>1722</ele>
        <time>2021-01-21T08:34:12Z</time>
      </trkpt>
      <trkpt lat="42.56306" lon="1.77059">
        <ele>1737</ele>
        <time>2021-01-21T08:38:16Z</time>
      </trkpt>
      <trkpt lat="42.56292" lon="1.77044">
        <ele>1736.18</ele>
        <time>2021-01-21T08:38:38Z</time>
      </trkpt>
      <trkpt lat="42.56279" lon="1.77026">
        <ele>1735.99</ele>
        <time>2021-01-21T08:39:01Z</time>
      </trkpt>
      <trkpt lat="42.56276" lon="1.77002">
        <ele>1744.29</ele>
        <time>2021-01-21T08:39:20Z</time>
      </trkpt>
      <trkpt lat="42.56228" lon="1.76923">
        <ele>1738.13</ele>
        <time>2021-01-21T08:40:42Z</time>
      </trkpt>
      <trkpt lat="42.56235" lon="1.769">
        <ele>1738.42</ele>
        <time>2021-01-21T08:41:04Z</time>
      </trkpt>
      <trkpt lat="42.56289" lon="1.76916">
        <ele>1727.08</ele>
        <time>2021-01-21T08:42:09Z</time>
      </trkpt>
      <trkpt lat="42.56321" lon="1.76894">
        <ele>1729.1</ele>
        <time>2021-01-21T08:42:50Z</time>
      </trkpt>
      <trkpt lat="42.56332" lon="1.7682">
        <ele>1728.22</ele>
        <time>2021-01-21T08:43:50Z</time>
      </trkpt>
      <trkpt lat="42.56339" lon="1.76797">
        <ele>1724.58</ele>
        <time>2021-01-21T08:44:15Z</time>
      </trkpt>
      <trkpt lat="42.56353" lon="1.7678">
        <ele>1717.42</ele>
        <time>2021-01-21T08:44:38Z</time>
      </trkpt>
      <trkpt lat="42.56373" lon="1.76684">
        <ele>1709.93</ele>
        <time>2021-01-21T08:46:02Z</time>
      </trkpt>
      <trkpt lat="42.56371" lon="1.7661">
        <ele>1733.74</ele>
        <time>2021-01-21T08:47:12Z</time>
      </trkpt>
      <trkpt lat="42.56385" lon="1.76593">
        <ele>1740.11</ele>
        <time>2021-01-21T08:47:32Z</time>
      </trkpt>
      <trkpt lat="42.56387" lon="1.76568">
        <ele>1745.19</ele>
        <time>2021-01-21T08:47:51Z</time>
      </trkpt>
      <trkpt lat="42.56416" lon="1.76506">
        <ele>1737.62</ele>
        <time>2021-01-21T08:49:00Z</time>
      </trkpt>
      <trkpt lat="42.56424" lon="1.76457">
        <ele>1751.37</ele>
        <time>2021-01-21T08:51:22Z</time>
      </trkpt>
      <trkpt lat="42.56449" lon="1.7639">
        <ele>1743.17</ele>
        <time>2021-01-21T08:52:05Z</time>
      </trkpt>
      <trkpt lat="42.56456" lon="1.7634">
        <ele>1751.19</ele>
        <time>2021-01-21T08:52:44Z</time>
      </trkpt>
      <trkpt lat="42.56475" lon="1.76296">
        <ele>1734.47</ele>
        <time>2021-01-21T08:53:16Z</time>
      </trkpt>
      <trkpt lat="42.56488" lon="1.76147">
        <ele>1743.41</ele>
        <time>2021-01-21T08:55:00Z</time>
      </trkpt>
      <trkpt lat="42.5651" lon="1.76106">
        <ele>1739.53</ele>
        <time>2021-01-21T08:55:48Z</time>
      </trkpt>
      <trkpt lat="42.56507" lon="1.76081">
        <ele>1734.89</ele>
        <time>2021-01-21T08:56:14Z</time>
      </trkpt>
      <trkpt lat="42.56524" lon="1.76071">
        <ele>1739.07</ele>
        <time>2021-01-21T08:56:57Z</time>
      </trkpt>
      <trkpt lat="42.56536" lon="1.76053">
        <ele>1736.39</ele>
        <time>2021-01-21T08:58:14Z</time>
      </trkpt>
      <trkpt lat="42.56539" lon="1.76003">
        <ele>1740.05</ele>
        <time>2021-01-21T09:01:57Z</time>
      </trkpt>
      <trkpt lat="42.56553" lon="1.7593">
        <ele>1744.56</ele>
        <time>2021-01-21T09:03:29Z</time>
      </trkpt>
      <trkpt lat="42.56541" lon="1.75911">
        <ele>1747.44</ele>
        <time>2021-01-21T09:04:21Z</time>
      </trkpt>
      <trkpt lat="42.56532" lon="1.75862">
        <ele>1754.21</ele>
        <time>2021-01-21T09:05:13Z</time>
      </trkpt>
      <trkpt lat="42.56544" lon="1.75845">
        <ele>1757.77</ele>
        <time>2021-01-21T09:06:14Z</time>
      </trkpt>
      <trkpt lat="42.56551" lon="1.75796">
        <ele>1769.27</ele>
        <time>2021-01-21T09:07:18Z</time>
      </trkpt>
      <trkpt lat="42.56578" lon="1.75763">
        <ele>1778.2</ele>
        <time>2021-01-21T09:08:03Z</time>
      </trkpt>
      <trkpt lat="42.56587" lon="1.75741">
        <ele>1780.9</ele>
        <time>2021-01-21T09:08:26Z</time>
      </trkpt>
      <trkpt lat="42.56594" lon="1.75617">
        <ele>1799.16</ele>
        <time>2021-01-21T09:10:11Z</time>
      </trkpt>
      <trkpt lat="42.56625" lon="1.7559">
        <ele>1804.05</ele>
        <time>2021-01-21T09:10:55Z</time>
      </trkpt>
      <trkpt lat="42.56661" lon="1.75595">
        <ele>1812.69</ele>
        <time>2021-01-21T09:11:45Z</time>
      </trkpt>
      <trkpt lat="42.56672" lon="1.75575">
        <ele>1814.17</ele>
        <time>2021-01-21T09:12:17Z</time>
      </trkpt>
      <trkpt lat="42.56689" lon="1.75566">
        <ele>1820.49</ele>
        <time>2021-01-21T09:12:48Z</time>
      </trkpt>
      <trkpt lat="42.56698" lon="1.75544">
        <ele>1827.73</ele>
        <time>2021-01-21T09:13:24Z</time>
      </trkpt>
      <trkpt lat="42.56683" lon="1.7553">
        <ele>1836.42</ele>
        <time>2021-01-21T09:14:34Z</time>
      </trkpt>
      <trkpt lat="42.56704" lon="1.75489">
        <ele>1842.8</ele>
        <time>2021-01-21T09:15:21Z</time>
      </trkpt>
      <trkpt lat="42.56722" lon="1.75482">
        <ele>1845.86</ele>
        <time>2021-01-21T09:15:47Z</time>
      </trkpt>
      <trkpt lat="42.56737" lon="1.75494">
        <ele>1843.38</ele>
        <time>2021-01-21T09:16:13Z</time>
      </trkpt>
      <trkpt lat="42.5677" lon="1.7547">
        <ele>1860.21</ele>
        <time>2021-01-21T09:17:29Z</time>
      </trkpt>
      <trkpt lat="42.56788" lon="1.75475">
        <ele>1861.16</ele>
        <time>2021-01-21T09:17:57Z</time>
      </trkpt>
      <trkpt lat="42.56806" lon="1.75469">
        <ele>1872.63</ele>
        <time>2021-01-21T09:19:04Z</time>
      </trkpt>
      <trkpt lat="42.56819" lon="1.75452">
        <ele>1886.87</ele>
        <time>2021-01-21T09:20:12Z</time>
      </trkpt>
      <trkpt lat="42.56827" lon="1.75429">
        <ele>1897.89</ele>
        <time>2021-01-21T09:21:33Z</time>
      </trkpt>
      <trkpt lat="42.5681" lon="1.75418">
        <ele>1905.29</ele>
        <time>2021-01-21T09:22:01Z</time>
      </trkpt>
      <trkpt lat="42.56808" lon="1.75393">
        <ele>1912.2</ele>
        <time>2021-01-21T09:23:05Z</time>
      </trkpt>
      <trkpt lat="42.56827" lon="1.7539">
        <ele>1914.14</ele>
        <time>2021-01-21T09:23:45Z</time>
      </trkpt>
      <trkpt lat="42.56822" lon="1.75366">
        <ele>1922.12</ele>
        <time>2021-01-21T09:25:20Z</time>
      </trkpt>
      <trkpt lat="42.56839" lon="1.75358">
        <ele>1933.77</ele>
        <time>2021-01-21T09:26:27Z</time>
      </trkpt>
      <trkpt lat="42.56834" lon="1.75334">
        <ele>1931.79</ele>
        <time>2021-01-21T09:27:04Z</time>
      </trkpt>
      <trkpt lat="42.56844" lon="1.75313">
        <ele>1946.51</ele>
        <time>2021-01-21T09:28:15Z</time>
      </trkpt>
      <trkpt lat="42.56862" lon="1.75311">
        <ele>1956.6</ele>
        <time>2021-01-21T09:29:21Z</time>
      </trkpt>
      <trkpt lat="42.56853" lon="1.75237">
        <ele>1962.38</ele>
        <time>2021-01-21T09:31:19Z</time>
      </trkpt>
      <trkpt lat="42.56867" lon="1.7522">
        <ele>1981.73</ele>
        <time>2021-01-21T09:32:02Z</time>
      </trkpt>
      <trkpt lat="42.56884" lon="1.75225">
        <ele>1987.91</ele>
        <time>2021-01-21T09:32:43Z</time>
      </trkpt>
      <trkpt lat="42.56876" lon="1.75178">
        <ele>1997.99</ele>
        <time>2021-01-21T09:33:54Z</time>
      </trkpt>
      <trkpt lat="42.56876" lon="1.75103">
        <ele>2007.71</ele>
        <time>2021-01-21T09:35:22Z</time>
      </trkpt>
      <trkpt lat="42.5691" lon="1.74962">
        <ele>2039.79</ele>
        <time>2021-01-21T09:40:59Z</time>
      </trkpt>
      <trkpt lat="42.56928" lon="1.74965">
        <ele>2049.3</ele>
        <time>2021-01-21T09:41:47Z</time>
      </trkpt>
      <trkpt lat="42.56962" lon="1.74983">
        <ele>2053.38</ele>
        <time>2021-01-21T09:42:46Z</time>
      </trkpt>
      <trkpt lat="42.56977" lon="1.74969">
        <ele>2066.56</ele>
        <time>2021-01-21T09:43:33Z</time>
      </trkpt>
      <trkpt lat="42.56981" lon="1.74945">
        <ele>2068.95</ele>
        <time>2021-01-21T09:43:59Z</time>
      </trkpt>
      <trkpt lat="42.56999" lon="1.74948">
        <ele>2078.92</ele>
        <time>2021-01-21T09:44:41Z</time>
      </trkpt>
      <trkpt lat="42.57014" lon="1.74935">
        <ele>2091</ele>
        <time>2021-01-21T09:46:05Z</time>
      </trkpt>
      <trkpt lat="42.57028" lon="1.74952">
        <ele>2090.37</ele>
        <time>2021-01-21T09:46:37Z</time>
      </trkpt>
      <trkpt lat="42.57043" lon="1.74937">
        <ele>2100.4</ele>
        <time>2021-01-21T09:47:35Z</time>
      </trkpt>
      <trkpt lat="42.57061" lon="1.74938">
        <ele>2114.99</ele>
        <time>2021-01-21T09:49:02Z</time>
      </trkpt>
      <trkpt lat="42.5707" lon="1.7489">
        <ele>2121.7</ele>
        <time>2021-01-21T09:50:04Z</time>
      </trkpt>
      <trkpt lat="42.57106" lon="1.74947">
        <ele>2133.42</ele>
        <time>2021-01-21T09:52:02Z</time>
      </trkpt>
      <trkpt lat="42.5715" lon="1.74993">
        <ele>2153.85</ele>
        <time>2021-01-21T09:53:24Z</time>
      </trkpt>
      <trkpt lat="42.57153" lon="1.74969">
        <ele>2156.54</ele>
        <time>2021-01-21T09:54:07Z</time>
      </trkpt>
      <trkpt lat="42.57188" lon="1.74986">
        <ele>2160.51</ele>
        <time>2021-01-21T09:55:35Z</time>
      </trkpt>
      <trkpt lat="42.57202" lon="1.7497">
        <ele>2173.85</ele>
        <time>2021-01-21T09:58:19Z</time>
      </trkpt>
      <trkpt lat="42.57219" lon="1.74967">
        <ele>2172.37</ele>
        <time>2021-01-21T09:59:18Z</time>
      </trkpt>
      <trkpt lat="42.57233" lon="1.74983">
        <ele>2181.11</ele>
        <time>2021-01-21T09:59:42Z</time>
      </trkpt>
      <trkpt lat="42.57252" lon="1.74981">
        <ele>2192.52</ele>
        <time>2021-01-21T10:00:18Z</time>
      </trkpt>
      <trkpt lat="42.57321" lon="1.75127">
        <ele>2221.08</ele>
        <time>2021-01-21T10:03:41Z</time>
      </trkpt>
      <trkpt lat="42.57336" lon="1.75141">
        <ele>2235.66</ele>
        <time>2021-01-21T10:05:45Z</time>
      </trkpt>
      <trkpt lat="42.57358" lon="1.75181">
        <ele>2240.66</ele>
        <time>2021-01-21T10:06:42Z</time>
      </trkpt>
      <trkpt lat="42.57368" lon="1.75109">
        <ele>2245.65</ele>
        <time>2021-01-21T10:08:10Z</time>
      </trkpt>
      <trkpt lat="42.57387" lon="1.75104">
        <ele>2258.28</ele>
        <time>2021-01-21T10:08:53Z</time>
      </trkpt>
      <trkpt lat="42.57471" lon="1.75199">
        <ele>2287.31</ele>
        <time>2021-01-21T10:12:33Z</time>
      </trkpt>
      <trkpt lat="42.57475" lon="1.75175">
        <ele>2290.65</ele>
        <time>2021-01-21T10:13:07Z</time>
      </trkpt>
      <trkpt lat="42.57492" lon="1.75182">
        <ele>2296.41</ele>
        <time>2021-01-21T10:14:05Z</time>
      </trkpt>
      <trkpt lat="42.57497" lon="1.75158">
        <ele>2302.55</ele>
        <time>2021-01-21T10:14:46Z</time>
      </trkpt>
      <trkpt lat="42.57515" lon="1.75158">
        <ele>2314.26</ele>
        <time>2021-01-21T10:15:53Z</time>
      </trkpt>
      <trkpt lat="42.57522" lon="1.75135">
        <ele>2320.85</ele>
        <time>2021-01-21T10:16:59Z</time>
      </trkpt>
      <trkpt lat="42.5754" lon="1.75127">
        <ele>2329.85</ele>
        <time>2021-01-21T10:18:22Z</time>
      </trkpt>
      <trkpt lat="42.57538" lon="1.75103">
        <ele>2333.94</ele>
        <time>2021-01-21T10:19:00Z</time>
      </trkpt>
      <trkpt lat="42.57556" lon="1.75108">
        <ele>2342.51</ele>
        <time>2021-01-21T10:19:48Z</time>
      </trkpt>
      <trkpt lat="42.5757" lon="1.75125">
        <ele>2345.97</ele>
        <time>2021-01-21T10:20:18Z</time>
      </trkpt>
      <trkpt lat="42.57603" lon="1.75147">
        <ele>2352.89</ele>
        <time>2021-01-21T10:21:16Z</time>
      </trkpt>
      <trkpt lat="42.57609" lon="1.75124">
        <ele>2356.2</ele>
        <time>2021-01-21T10:21:51Z</time>
      </trkpt>
      <trkpt lat="42.57607" lon="1.75099">
        <ele>2362.08</ele>
        <time>2021-01-21T10:22:20Z</time>
      </trkpt>
      <trkpt lat="42.5762" lon="1.75116">
        <ele>2369.59</ele>
        <time>2021-01-21T10:22:53Z</time>
      </trkpt>
      <trkpt lat="42.57638" lon="1.75108">
        <ele>2376.06</ele>
        <time>2021-01-21T10:24:22Z</time>
      </trkpt>
      <trkpt lat="42.57651" lon="1.75124">
        <ele>2385.83</ele>
        <time>2021-01-21T10:24:44Z</time>
      </trkpt>
      <trkpt lat="42.57668" lon="1.75194">
        <ele>2397.67</ele>
        <time>2021-01-21T10:27:17Z</time>
      </trkpt>
      <trkpt lat="42.57686" lon="1.75195">
        <ele>2405.58</ele>
        <time>2021-01-21T10:33:11Z</time>
      </trkpt>
      <trkpt lat="42.57701" lon="1.7524">
        <ele>2411.33</ele>
        <time>2021-01-21T10:34:15Z</time>
      </trkpt>
      <trkpt lat="42.57734" lon="1.75217">
        <ele>2423.99</ele>
        <time>2021-01-21T10:36:02Z</time>
      </trkpt>
      <trkpt lat="42.57747" lon="1.752">
        <ele>2428.01</ele>
        <time>2021-01-21T10:36:33Z</time>
      </trkpt>
      <trkpt lat="42.57765" lon="1.75205">
        <ele>2437.1</ele>
        <time>2021-01-21T10:37:31Z</time>
      </trkpt>
      <trkpt lat="42.57781" lon="1.75216">
        <ele>2439.73</ele>
        <time>2021-01-21T10:38:10Z</time>
      </trkpt>
      <trkpt lat="42.57815" lon="1.75275">
        <ele>2456.82</ele>
        <time>2021-01-21T10:39:42Z</time>
      </trkpt>
      <trkpt lat="42.57835" lon="1.75233">
        <ele>2468.42</ele>
        <time>2021-01-21T10:41:04Z</time>
      </trkpt>
      <trkpt lat="42.5785" lon="1.7522">
        <ele>2474.04</ele>
        <time>2021-01-21T10:43:40Z</time>
      </trkpt>
      <trkpt lat="42.57903" lon="1.75237">
        <ele>2493.39</ele>
        <time>2021-01-21T10:47:58Z</time>
      </trkpt>
      <trkpt lat="42.57947" lon="1.75279">
        <ele>2507.16</ele>
        <time>2021-01-21T10:49:41Z</time>
      </trkpt>
      <trkpt lat="42.58001" lon="1.75289">
        <ele>2527.68</ele>
        <time>2021-01-21T10:51:31Z</time>
      </trkpt>
      <trkpt lat="42.58031" lon="1.75317">
        <ele>2536.03</ele>
        <time>2021-01-21T10:52:34Z</time>
      </trkpt>
      <trkpt lat="42.58046" lon="1.75271">
        <ele>2542.84</ele>
        <time>2021-01-21T10:53:42Z</time>
      </trkpt>
      <trkpt lat="42.58063" lon="1.75265">
        <ele>2552.45</ele>
        <time>2021-01-21T10:54:29Z</time>
      </trkpt>
      <trkpt lat="42.5809" lon="1.75298">
        <ele>2560.6</ele>
        <time>2021-01-21T10:55:27Z</time>
      </trkpt>
      <trkpt lat="42.58106" lon="1.75286">
        <ele>2567.3</ele>
        <time>2021-01-21T10:56:24Z</time>
      </trkpt>
      <trkpt lat="42.58148" lon="1.75332">
        <ele>2585.96</ele>
        <time>2021-01-21T10:58:05Z</time>
      </trkpt>
      <trkpt lat="42.58166" lon="1.7533">
        <ele>2594.03</ele>
        <time>2021-01-21T10:59:13Z</time>
      </trkpt>
      <trkpt lat="42.58171" lon="1.75307">
        <ele>2597.4</ele>
        <time>2021-01-21T10:59:52Z</time>
      </trkpt>
      <trkpt lat="42.58189" lon="1.75311">
        <ele>2606.77</ele>
        <time>2021-01-21T11:00:53Z</time>
      </trkpt>
      <trkpt lat="42.58197" lon="1.75263">
        <ele>2620.84</ele>
        <time>2021-01-21T11:02:14Z</time>
      </trkpt>
      <trkpt lat="42.58213" lon="1.75276">
        <ele>2620.99</ele>
        <time>2021-01-21T11:02:59Z</time>
      </trkpt>
      <trkpt lat="42.58239" lon="1.7524">
        <ele>2635.69</ele>
        <time>2021-01-21T11:04:22Z</time>
      </trkpt>
      <trkpt lat="42.58257" lon="1.75237">
        <ele>2645.23</ele>
        <time>2021-01-21T11:05:14Z</time>
      </trkpt>
      <trkpt lat="42.58306" lon="1.75162">
        <ele>2658.06</ele>
        <time>2021-01-21T11:07:04Z</time>
      </trkpt>
      <trkpt lat="42.58334" lon="1.7513">
        <ele>2668.85</ele>
        <time>2021-01-21T11:08:37Z</time>
      </trkpt>
      <trkpt lat="42.58355" lon="1.75089">
        <ele>2670.51</ele>
        <time>2021-01-21T11:09:35Z</time>
      </trkpt>
      <trkpt lat="42.58385" lon="1.7506">
        <ele>2673.27</ele>
        <time>2021-01-21T11:10:23Z</time>
      </trkpt>
      <trkpt lat="42.58403" lon="1.75053">
        <ele>2676.14</ele>
        <time>2021-01-21T11:10:56Z</time>
      </trkpt>
      <trkpt lat="42.58428" lon="1.75015">
        <ele>2685.57</ele>
        <time>2021-01-21T11:11:51Z</time>
      </trkpt>
      <trkpt lat="42.58443" lon="1.7497">
        <ele>2685.24</ele>
        <time>2021-01-21T11:12:34Z</time>
      </trkpt>
      <trkpt lat="42.58451" lon="1.74921">
        <ele>2683.24</ele>
        <time>2021-01-21T11:13:06Z</time>
      </trkpt>
      <trkpt lat="42.58443" lon="1.74872">
        <ele>2690.09</ele>
        <time>2021-01-21T11:13:41Z</time>
      </trkpt>
      <trkpt lat="42.58451" lon="1.74823">
        <ele>2685.01</ele>
        <time>2021-01-21T11:14:24Z</time>
      </trkpt>
      <trkpt lat="42.5846" lon="1.74802">
        <ele>2687.06</ele>
        <time>2021-01-21T11:14:44Z</time>
      </trkpt>
      <trkpt lat="42.58476" lon="1.7479">
        <ele>2682.53</ele>
        <time>2021-01-21T11:15:06Z</time>
      </trkpt>
      <trkpt lat="42.58506" lon="1.74728">
        <ele>2671.54</ele>
        <time>2021-01-21T11:18:06Z</time>
      </trkpt>
      <trkpt lat="42.58523" lon="1.7472">
        <ele>2670.01</ele>
        <time>2021-01-21T11:25:48Z</time>
      </trkpt>
      <trkpt lat="42.58513" lon="1.74645">
        <ele>2656.13</ele>
        <time>2021-01-21T11:29:44Z</time>
      </trkpt>
      <trkpt lat="42.58522" lon="1.74595">
        <ele>2650.2</ele>
        <time>2021-01-21T11:30:03Z</time>
      </trkpt>
      <trkpt lat="42.58519" lon="1.74569">
        <ele>2644.06</ele>
        <time>2021-01-21T11:30:22Z</time>
      </trkpt>
      <trkpt lat="42.58498" lon="1.74467">
        <ele>2644.54</ele>
        <time>2021-01-21T11:30:45Z</time>
      </trkpt>
      <trkpt lat="42.58471" lon="1.74399">
        <ele>2640.74</ele>
        <time>2021-01-21T11:30:58Z</time>
      </trkpt>
      <trkpt lat="42.58467" lon="1.74374">
        <ele>2628.41</ele>
        <time>2021-01-21T11:32:44Z</time>
      </trkpt>
      <trkpt lat="42.58409" lon="1.74377">
        <ele>2581.25</ele>
        <time>2021-01-21T11:33:22Z</time>
      </trkpt>
      <trkpt lat="42.58375" lon="1.74357">
        <ele>2541.64</ele>
        <time>2021-01-21T11:34:01Z</time>
      </trkpt>
      <trkpt lat="42.58298" lon="1.74336">
        <ele>2493.72</ele>
        <time>2021-01-21T11:36:09Z</time>
      </trkpt>
      <trkpt lat="42.58293" lon="1.74312">
        <ele>2485.86</ele>
        <time>2021-01-21T11:36:17Z</time>
      </trkpt>
      <trkpt lat="42.58276" lon="1.74298">
        <ele>2478.89</ele>
        <time>2021-01-21T11:36:26Z</time>
      </trkpt>
      <trkpt lat="42.58258" lon="1.74295">
        <ele>2468.39</ele>
        <time>2021-01-21T11:36:39Z</time>
      </trkpt>
      <trkpt lat="42.58252" lon="1.74268">
        <ele>2462.72</ele>
        <time>2021-01-21T11:36:44Z</time>
      </trkpt>
      <trkpt lat="42.58209" lon="1.74217">
        <ele>2451.32</ele>
        <time>2021-01-21T11:37:02Z</time>
      </trkpt>
      <trkpt lat="42.5819" lon="1.74218">
        <ele>2442.38</ele>
        <time>2021-01-21T11:37:11Z</time>
      </trkpt>
      <trkpt lat="42.58174" lon="1.74233">
        <ele>2432.06</ele>
        <time>2021-01-21T11:37:39Z</time>
      </trkpt>
      <trkpt lat="42.58169" lon="1.74259">
        <ele>2429.18</ele>
        <time>2021-01-21T11:37:46Z</time>
      </trkpt>
      <trkpt lat="42.58154" lon="1.74272">
        <ele>2426.45</ele>
        <time>2021-01-21T11:37:57Z</time>
      </trkpt>
      <trkpt lat="42.58148" lon="1.74249">
        <ele>2425.62</ele>
        <time>2021-01-21T11:38:05Z</time>
      </trkpt>
      <trkpt lat="42.58119" lon="1.74215">
        <ele>2417.54</ele>
        <time>2021-01-21T11:38:22Z</time>
      </trkpt>
      <trkpt lat="42.58101" lon="1.74219">
        <ele>2406.84</ele>
        <time>2021-01-21T11:38:35Z</time>
      </trkpt>
      <trkpt lat="42.58097" lon="1.74195">
        <ele>2398.95</ele>
        <time>2021-01-21T11:38:47Z</time>
      </trkpt>
      <trkpt lat="42.58078" lon="1.74149">
        <ele>2383.98</ele>
        <time>2021-01-21T11:39:03Z</time>
      </trkpt>
      <trkpt lat="42.58084" lon="1.74124">
        <ele>2381.39</ele>
        <time>2021-01-21T11:39:10Z</time>
      </trkpt>
      <trkpt lat="42.5807" lon="1.74104">
        <ele>2378.96</ele>
        <time>2021-01-21T11:39:14Z</time>
      </trkpt>
      <trkpt lat="42.58053" lon="1.74022">
        <ele>2360.04</ele>
        <time>2021-01-21T11:39:25Z</time>
      </trkpt>
      <trkpt lat="42.58054" lon="1.73938">
        <ele>2346.16</ele>
        <time>2021-01-21T11:39:41Z</time>
      </trkpt>
      <trkpt lat="42.58046" lon="1.73909">
        <ele>2345.77</ele>
        <time>2021-01-21T11:39:45Z</time>
      </trkpt>
      <trkpt lat="42.58048" lon="1.73882">
        <ele>2343.53</ele>
        <time>2021-01-21T11:39:50Z</time>
      </trkpt>
      <trkpt lat="42.58064" lon="1.73871">
        <ele>2326.46</ele>
        <time>2021-01-21T11:41:17Z</time>
      </trkpt>
      <trkpt lat="42.58009" lon="1.73882">
        <ele>2329.8</ele>
        <time>2021-01-21T12:12:17Z</time>
      </trkpt>
      <trkpt lat="42.57927" lon="1.7388">
        <ele>2322.28</ele>
        <time>2021-01-21T12:12:48Z</time>
      </trkpt>
      <trkpt lat="42.57909" lon="1.73873">
        <ele>2318.51</ele>
        <time>2021-01-21T12:12:54Z</time>
      </trkpt>
      <trkpt lat="42.57867" lon="1.73878">
        <ele>2313.22</ele>
        <time>2021-01-21T12:13:04Z</time>
      </trkpt>
      <trkpt lat="42.57819" lon="1.73923">
        <ele>2307.4</ele>
        <time>2021-01-21T12:13:17Z</time>
      </trkpt>
      <trkpt lat="42.57793" lon="1.73962">
        <ele>2300.08</ele>
        <time>2021-01-21T12:13:27Z</time>
      </trkpt>
      <trkpt lat="42.57776" lon="1.73969">
        <ele>2298.99</ele>
        <time>2021-01-21T12:13:31Z</time>
      </trkpt>
      <trkpt lat="42.57758" lon="1.73989">
        <ele>2295.02</ele>
        <time>2021-01-21T12:13:37Z</time>
      </trkpt>
      <trkpt lat="42.5772" lon="1.74005">
        <ele>2285.8</ele>
        <time>2021-01-21T12:14:03Z</time>
      </trkpt>
      <trkpt lat="42.57711" lon="1.74029">
        <ele>2281.76</ele>
        <time>2021-01-21T12:14:10Z</time>
      </trkpt>
      <trkpt lat="42.57678" lon="1.74056">
        <ele>2271.84</ele>
        <time>2021-01-21T12:14:24Z</time>
      </trkpt>
      <trkpt lat="42.57643" lon="1.74077">
        <ele>2258.01</ele>
        <time>2021-01-21T12:14:37Z</time>
      </trkpt>
      <trkpt lat="42.57624" lon="1.74071">
        <ele>2251.58</ele>
        <time>2021-01-21T12:14:42Z</time>
      </trkpt>
      <trkpt lat="42.57605" lon="1.74076">
        <ele>2249.48</ele>
        <time>2021-01-21T12:14:47Z</time>
      </trkpt>
      <trkpt lat="42.57607" lon="1.74128">
        <ele>2232.64</ele>
        <time>2021-01-21T12:15:36Z</time>
      </trkpt>
      <trkpt lat="42.57597" lon="1.74176">
        <ele>2224.93</ele>
        <time>2021-01-21T12:16:30Z</time>
      </trkpt>
      <trkpt lat="42.5759" lon="1.74151">
        <ele>2223.02</ele>
        <time>2021-01-21T12:16:38Z</time>
      </trkpt>
      <trkpt lat="42.57573" lon="1.74159">
        <ele>2221.71</ele>
        <time>2021-01-21T12:16:50Z</time>
      </trkpt>
      <trkpt lat="42.57561" lon="1.74179">
        <ele>2213.33</ele>
        <time>2021-01-21T12:17:03Z</time>
      </trkpt>
      <trkpt lat="42.57522" lon="1.74157">
        <ele>2202.29</ele>
        <time>2021-01-21T12:17:14Z</time>
      </trkpt>
      <trkpt lat="42.57446" lon="1.74166">
        <ele>2190.98</ele>
        <time>2021-01-21T12:17:44Z</time>
      </trkpt>
      <trkpt lat="42.5739" lon="1.74161">
        <ele>2188.72</ele>
        <time>2021-01-21T12:18:06Z</time>
      </trkpt>
      <trkpt lat="42.57372" lon="1.74152">
        <ele>2185.43</ele>
        <time>2021-01-21T12:19:08Z</time>
      </trkpt>
      <trkpt lat="42.57344" lon="1.74186">
        <ele>2156.73</ele>
        <time>2021-01-21T12:20:22Z</time>
      </trkpt>
      <trkpt lat="42.57345" lon="1.74214">
        <ele>2150.59</ele>
        <time>2021-01-21T12:20:44Z</time>
      </trkpt>
      <trkpt lat="42.5733" lon="1.74226">
        <ele>2135.87</ele>
        <time>2021-01-21T12:21:00Z</time>
      </trkpt>
      <trkpt lat="42.5731" lon="1.74225">
        <ele>2131.28</ele>
        <time>2021-01-21T12:21:06Z</time>
      </trkpt>
      <trkpt lat="42.57293" lon="1.74213">
        <ele>2127.84</ele>
        <time>2021-01-21T12:21:13Z</time>
      </trkpt>
      <trkpt lat="42.57305" lon="1.74232">
        <ele>2120.17</ele>
        <time>2021-01-21T12:21:24Z</time>
      </trkpt>
      <trkpt lat="42.57286" lon="1.74239">
        <ele>2110.73</ele>
        <time>2021-01-21T12:21:35Z</time>
      </trkpt>
      <trkpt lat="42.57267" lon="1.74236">
        <ele>2107.6</ele>
        <time>2021-01-21T12:21:42Z</time>
      </trkpt>
      <trkpt lat="42.57267" lon="1.7426">
        <ele>2096.66</ele>
        <time>2021-01-21T12:22:32Z</time>
      </trkpt>
      <trkpt lat="42.5725" lon="1.74251">
        <ele>2094.5</ele>
        <time>2021-01-21T12:22:39Z</time>
      </trkpt>
      <trkpt lat="42.57245" lon="1.74275">
        <ele>2084.85</ele>
        <time>2021-01-21T12:23:18Z</time>
      </trkpt>
      <trkpt lat="42.57232" lon="1.74293">
        <ele>2078.13</ele>
        <time>2021-01-21T12:24:05Z</time>
      </trkpt>
      <trkpt lat="42.57173" lon="1.74317">
        <ele>2075.51</ele>
        <time>2021-01-21T12:24:28Z</time>
      </trkpt>
      <trkpt lat="42.57135" lon="1.74321">
        <ele>2066.62</ele>
        <time>2021-01-21T12:24:39Z</time>
      </trkpt>
      <trkpt lat="42.57058" lon="1.74344">
        <ele>2051.89</ele>
        <time>2021-01-21T12:25:03Z</time>
      </trkpt>
      <trkpt lat="42.57004" lon="1.74373">
        <ele>2046.97</ele>
        <time>2021-01-21T12:25:32Z</time>
      </trkpt>
      <trkpt lat="42.56989" lon="1.74386">
        <ele>2045.71</ele>
        <time>2021-01-21T12:25:39Z</time>
      </trkpt>
      <trkpt lat="42.56953" lon="1.74449">
        <ele>2043.88</ele>
        <time>2021-01-21T12:27:32Z</time>
      </trkpt>
      <trkpt lat="42.56938" lon="1.74496">
        <ele>2041.96</ele>
        <time>2021-01-21T12:27:49Z</time>
      </trkpt>
      <trkpt lat="42.56911" lon="1.7446">
        <ele>2027.8</ele>
        <time>2021-01-21T12:28:11Z</time>
      </trkpt>
      <trkpt lat="42.56881" lon="1.74489">
        <ele>2013.99</ele>
        <time>2021-01-21T12:28:50Z</time>
      </trkpt>
      <trkpt lat="42.56864" lon="1.74497">
        <ele>2001.93</ele>
        <time>2021-01-21T12:29:05Z</time>
      </trkpt>
      <trkpt lat="42.56844" lon="1.74495">
        <ele>1989.15</ele>
        <time>2021-01-21T12:29:21Z</time>
      </trkpt>
      <trkpt lat="42.56843" lon="1.74469">
        <ele>1985.64</ele>
        <time>2021-01-21T12:29:26Z</time>
      </trkpt>
      <trkpt lat="42.56813" lon="1.74495">
        <ele>1973.87</ele>
        <time>2021-01-21T12:30:25Z</time>
      </trkpt>
      <trkpt lat="42.56808" lon="1.7447">
        <ele>1970.1</ele>
        <time>2021-01-21T12:30:33Z</time>
      </trkpt>
      <trkpt lat="42.56793" lon="1.74485">
        <ele>1962.21</ele>
        <time>2021-01-21T12:31:40Z</time>
      </trkpt>
      <trkpt lat="42.56786" lon="1.74508">
        <ele>1958.15</ele>
        <time>2021-01-21T12:31:58Z</time>
      </trkpt>
      <trkpt lat="42.56768" lon="1.74513">
        <ele>1951.29</ele>
        <time>2021-01-21T12:32:12Z</time>
      </trkpt>
      <trkpt lat="42.56768" lon="1.74459">
        <ele>1944.22</ele>
        <time>2021-01-21T12:32:29Z</time>
      </trkpt>
      <trkpt lat="42.56719" lon="1.74429">
        <ele>1916.86</ele>
        <time>2021-01-21T12:33:31Z</time>
      </trkpt>
      <trkpt lat="42.56709" lon="1.74407">
        <ele>1913.74</ele>
        <time>2021-01-21T12:33:51Z</time>
      </trkpt>
      <trkpt lat="42.56714" lon="1.74352">
        <ele>1914.37</ele>
        <time>2021-01-21T12:34:20Z</time>
      </trkpt>
      <trkpt lat="42.56704" lon="1.74374">
        <ele>1896.87</ele>
        <time>2021-01-21T12:35:20Z</time>
      </trkpt>
      <trkpt lat="42.5667" lon="1.74399">
        <ele>1890.99</ele>
        <time>2021-01-21T12:35:40Z</time>
      </trkpt>
      <trkpt lat="42.56655" lon="1.74447">
        <ele>1884.16</ele>
        <time>2021-01-21T12:35:56Z</time>
      </trkpt>
      <trkpt lat="42.56632" lon="1.74486">
        <ele>1875.67</ele>
        <time>2021-01-21T12:37:03Z</time>
      </trkpt>
      <trkpt lat="42.56627" lon="1.74511">
        <ele>1865.09</ele>
        <time>2021-01-21T12:37:39Z</time>
      </trkpt>
      <trkpt lat="42.56566" lon="1.74612">
        <ele>1849.17</ele>
        <time>2021-01-21T12:39:29Z</time>
      </trkpt>
      <trkpt lat="42.56534" lon="1.74645">
        <ele>1845.47</ele>
        <time>2021-01-21T12:39:44Z</time>
      </trkpt>
      <trkpt lat="42.56514" lon="1.7472">
        <ele>1841.26</ele>
        <time>2021-01-21T12:40:05Z</time>
      </trkpt>
      <trkpt lat="42.56504" lon="1.74739">
        <ele>1840.88</ele>
        <time>2021-01-21T12:40:17Z</time>
      </trkpt>
      <trkpt lat="42.56474" lon="1.74705">
        <ele>1831.28</ele>
        <time>2021-01-21T12:42:11Z</time>
      </trkpt>
      <trkpt lat="42.56446" lon="1.74737">
        <ele>1834.91</ele>
        <time>2021-01-21T12:45:42Z</time>
      </trkpt>
      <trkpt lat="42.56436" lon="1.74758">
        <ele>1837.27</ele>
        <time>2021-01-21T12:45:56Z</time>
      </trkpt>
      <trkpt lat="42.56433" lon="1.74807">
        <ele>1834.08</ele>
        <time>2021-01-21T12:46:19Z</time>
      </trkpt>
      <trkpt lat="42.56418" lon="1.7488">
        <ele>1832.89</ele>
        <time>2021-01-21T12:48:01Z</time>
      </trkpt>
      <trkpt lat="42.5642" lon="1.74906">
        <ele>1831.6</ele>
        <time>2021-01-21T12:48:09Z</time>
      </trkpt>
      <trkpt lat="42.56478" lon="1.75097">
        <ele>1813.55</ele>
        <time>2021-01-21T12:49:24Z</time>
      </trkpt>
      <trkpt lat="42.56465" lon="1.75115">
        <ele>1803.56</ele>
        <time>2021-01-21T12:49:49Z</time>
      </trkpt>
      <trkpt lat="42.56457" lon="1.75139">
        <ele>1800.08</ele>
        <time>2021-01-21T12:50:01Z</time>
      </trkpt>
      <trkpt lat="42.56462" lon="1.75165">
        <ele>1794.71</ele>
        <time>2021-01-21T12:50:13Z</time>
      </trkpt>
      <trkpt lat="42.5648" lon="1.75172">
        <ele>1790.46</ele>
        <time>2021-01-21T12:50:19Z</time>
      </trkpt>
      <trkpt lat="42.56463" lon="1.75216">
        <ele>1787.23</ele>
        <time>2021-01-21T12:50:39Z</time>
      </trkpt>
      <trkpt lat="42.56437" lon="1.7526">
        <ele>1780.68</ele>
        <time>2021-01-21T12:51:13Z</time>
      </trkpt>
      <trkpt lat="42.56468" lon="1.7535">
        <ele>1774.82</ele>
        <time>2021-01-21T12:53:31Z</time>
      </trkpt>
      <trkpt lat="42.56467" lon="1.75375">
        <ele>1779.63</ele>
        <time>2021-01-21T12:53:50Z</time>
      </trkpt>
      <trkpt lat="42.56451" lon="1.75448">
        <ele>1771.77</ele>
        <time>2021-01-21T12:55:02Z</time>
      </trkpt>
      <trkpt lat="42.5644" lon="1.75468">
        <ele>1771.81</ele>
        <time>2021-01-21T12:55:27Z</time>
      </trkpt>
      <trkpt lat="42.56443" lon="1.75544">
        <ele>1771.98</ele>
        <time>2021-01-21T12:56:27Z</time>
      </trkpt>
      <trkpt lat="42.56456" lon="1.75624">
        <ele>1766.08</ele>
        <time>2021-01-21T12:56:46Z</time>
      </trkpt>
      <trkpt lat="42.56451" lon="1.75786">
        <ele>1749.35</ele>
        <time>2021-01-21T12:57:23Z</time>
      </trkpt>
      <trkpt lat="42.56463" lon="1.75863">
        <ele>1744.76</ele>
        <time>2021-01-21T12:57:42Z</time>
      </trkpt>
      <trkpt lat="42.56481" lon="1.75911">
        <ele>1744.21</ele>
        <time>2021-01-21T12:58:01Z</time>
      </trkpt>
      <trkpt lat="42.56492" lon="1.7599">
        <ele>1746.16</ele>
        <time>2021-01-21T12:58:50Z</time>
      </trkpt>
      <trkpt lat="42.56494" lon="1.76042">
        <ele>1749.07</ele>
        <time>2021-01-21T12:59:11Z</time>
      </trkpt>
      <trkpt lat="42.56474" lon="1.76138">
        <ele>1744.09</ele>
        <time>2021-01-21T13:01:35Z</time>
      </trkpt>
      <trkpt lat="42.56476" lon="1.76273">
        <ele>1736.98</ele>
        <time>2021-01-21T13:02:23Z</time>
      </trkpt>
      <trkpt lat="42.56458" lon="1.76342">
        <ele>1741.1</ele>
        <time>2021-01-21T13:04:00Z</time>
      </trkpt>
      <trkpt lat="42.56452" lon="1.76392">
        <ele>1740.79</ele>
        <time>2021-01-21T13:04:47Z</time>
      </trkpt>
      <trkpt lat="42.56404" lon="1.76526">
        <ele>1747.54</ele>
        <time>2021-01-21T13:07:42Z</time>
      </trkpt>
      <trkpt lat="42.56384" lon="1.76568">
        <ele>1749.03</ele>
        <time>2021-01-21T13:10:53Z</time>
      </trkpt>
      <trkpt lat="42.56381" lon="1.76593">
        <ele>1750.95</ele>
        <time>2021-01-21T13:11:18Z</time>
      </trkpt>
      <trkpt lat="42.56366" lon="1.76606">
        <ele>1751.75</ele>
        <time>2021-01-21T13:11:32Z</time>
      </trkpt>
      <trkpt lat="42.5636" lon="1.76733">
        <ele>1746.89</ele>
        <time>2021-01-21T13:12:55Z</time>
      </trkpt>
      <trkpt lat="42.56328" lon="1.76798">
        <ele>1746.06</ele>
        <time>2021-01-21T13:13:23Z</time>
      </trkpt>
      <trkpt lat="42.56322" lon="1.76826">
        <ele>1742.81</ele>
        <time>2021-01-21T13:13:36Z</time>
      </trkpt>
      <trkpt lat="42.56325" lon="1.76874">
        <ele>1737.86</ele>
        <time>2021-01-21T13:13:48Z</time>
      </trkpt>
      <trkpt lat="42.563" lon="1.76916">
        <ele>1735.07</ele>
        <time>2021-01-21T13:14:13Z</time>
      </trkpt>
      <trkpt lat="42.56245" lon="1.76893">
        <ele>1722.07</ele>
        <time>2021-01-21T13:15:02Z</time>
      </trkpt>
      <trkpt lat="42.56239" lon="1.76916">
        <ele>1723.7</ele>
        <time>2021-01-21T13:15:39Z</time>
      </trkpt>
      <trkpt lat="42.5626" lon="1.76957">
        <ele>1735.94</ele>
        <time>2021-01-21T13:17:18Z</time>
      </trkpt>
      <trkpt lat="42.56285" lon="1.77026">
        <ele>1735.49</ele>
        <time>2021-01-21T13:17:59Z</time>
      </trkpt>
      <trkpt lat="42.56335" lon="1.77068">
        <ele>1730.89</ele>
        <time>2021-01-21T13:18:19Z</time>
      </trkpt>
      <trkpt lat="42.56334" lon="1.77093">
        <ele>1732.69</ele>
        <time>2021-01-21T13:18:25Z</time>
      </trkpt>
      <trkpt lat="42.56354" lon="1.77097">
        <ele>1730.06</ele>
        <time>2021-01-21T13:18:34Z</time>
      </trkpt>
      <trkpt lat="42.56354" lon="1.77121">
        <ele>1724.58</ele>
        <time>2021-01-21T13:19:29Z</time>
      </trkpt>
      <trkpt lat="42.56364" lon="1.77143">
        <ele>1725.01</ele>
        <time>2021-01-21T13:19:42Z</time>
      </trkpt>
    </trkseg>
  </trk>
</gpx>